createdAt,value
2022-12-22T00:00:25.892Z,100.00
2022-12-22T00:03:11.303Z,100.00
2022-12-22T00:05:56.550Z,100.00
2022-12-22T00:08:41.677Z,100.00
2022-12-22T00:11:33.624Z,100.00
2022-12-22T00:14:21.413Z,100.00
2022-12-22T00:17:07.239Z,100.00
2022-12-22T00:19:52.426Z,100.00
2022-12-22T00:22:43.314Z,100.00
2022-12-22T00:25:32.631Z,100.00
2022-12-22T00:28:17.679Z,100.00
2022-12-22T00:31:04.584Z,100.00
2022-12-22T00:33:49.736Z,100.00
2022-12-22T00:36:35.097Z,100.00
2022-12-22T00:39:21.884Z,100.00
2022-12-22T00:42:07.049Z,100.00
2022-12-22T00:44:52.322Z,100.00
2022-12-22T00:47:46.228Z,100.00
2022-12-22T00:50:34.858Z,100.00
2022-12-22T00:53:21.399Z,100.00
2022-12-22T00:56:07.043Z,100.00
2022-12-22T00:58:53.280Z,100.00
2022-12-22T01:01:38.488Z,100.00
2022-12-22T01:04:23.771Z,100.00
2022-12-22T01:07:08.847Z,100.00
2022-12-22T01:09:54.140Z,100.00
2022-12-22T01:12:43.953Z,100.00
2022-12-22T01:15:32.487Z,100.00
2022-12-22T01:18:17.730Z,100.00
2022-12-22T01:21:05.941Z,100.00
2022-12-22T01:23:51.169Z,100.00
2022-12-22T01:26:37.808Z,100.00
2022-12-22T01:29:23.449Z,100.00
2022-12-22T01:32:08.767Z,100.00
2022-12-22T01:34:53.938Z,100.00
2022-12-22T01:37:39.206Z,100.00
2022-12-22T01:40:25.151Z,100.00
2022-12-22T01:43:10.403Z,100.00
2022-12-22T01:45:56.077Z,100.00
2022-12-22T01:48:50.831Z,100.00
2022-12-22T01:51:47.104Z,100.00
2022-12-22T01:54:33.704Z,100.00
2022-12-22T01:57:19.875Z,100.00
2022-12-22T02:00:05.297Z,100.00
2022-12-22T02:02:51.037Z,100.00
2022-12-22T02:05:38.076Z,100.00
2022-12-22T02:08:23.224Z,100.00
2022-12-22T02:11:17.208Z,100.00
2022-12-22T02:14:29.458Z,100.00
2022-12-22T02:17:37.405Z,100.00
2022-12-22T02:21:10.969Z,100.00
2022-12-22T02:24:05.535Z,100.00
2022-12-22T02:26:55.489Z,100.00
2022-12-22T02:29:52.108Z,100.00
2022-12-22T02:32:37.294Z,100.00
2022-12-22T02:35:33.773Z,100.00
2022-12-22T02:38:39.734Z,100.00
2022-12-22T02:41:39.888Z,100.00
2022-12-22T02:44:40.372Z,100.00
2022-12-22T02:47:37.296Z,100.00
2022-12-22T02:50:52.688Z,100.00
2022-12-22T02:53:39.281Z,100.00
2022-12-22T02:56:29.313Z,100.00
2022-12-22T02:59:15.219Z,100.00
2022-12-22T03:02:03.656Z,100.00
2022-12-22T03:04:48.626Z,100.00
2022-12-22T03:07:33.661Z,100.00
2022-12-22T03:10:18.656Z,100.00
2022-12-22T03:13:03.869Z,100.00
2022-12-22T03:15:49.121Z,100.00
2022-12-22T03:18:34.064Z,100.00
2022-12-22T03:21:19.454Z,100.00
2022-12-22T03:24:04.547Z,100.00
2022-12-22T03:26:33.371Z,100.00
2022-12-22T03:28:59.930Z,100.00
2022-12-22T03:31:26.603Z,100.00
2022-12-22T03:33:53.232Z,100.00
2022-12-22T03:36:19.721Z,100.00
2022-12-22T03:38:46.329Z,100.00
2022-12-22T03:41:32.815Z,100.00
2022-12-22T03:44:17.905Z,100.00
2022-12-22T03:46:44.403Z,100.00
2022-12-22T03:49:12.591Z,100.00
2022-12-22T03:51:44.731Z,100.00
2022-12-22T03:54:19.530Z,100.00
2022-12-22T03:56:46.577Z,100.00
2022-12-22T03:59:14.141Z,100.00
2022-12-22T04:01:52.105Z,100.00
2022-12-22T04:04:22.008Z,100.00
2022-12-22T04:06:48.801Z,100.00
2022-12-22T04:09:15.718Z,100.00
2022-12-22T04:12:00.699Z,100.00
2022-12-22T04:14:33.339Z,100.00
2022-12-22T04:17:01.279Z,100.00
2022-12-22T04:19:27.853Z,100.00
2022-12-22T04:21:54.783Z,100.00
2022-12-22T04:24:22.122Z,100.00
2022-12-22T04:26:48.792Z,100.00
2022-12-22T04:29:15.276Z,100.00
2022-12-22T04:31:41.893Z,100.00
2022-12-22T04:34:08.521Z,100.00
2022-12-22T04:36:35.165Z,100.00
2022-12-22T04:39:01.815Z,100.00
2022-12-22T04:41:28.364Z,100.00
2022-12-22T04:43:54.963Z,100.00
2022-12-22T04:46:21.574Z,100.00
2022-12-22T04:48:48.166Z,100.00
2022-12-22T04:51:14.750Z,100.00
2022-12-22T04:53:41.342Z,100.00
2022-12-22T04:56:08.316Z,100.00
2022-12-22T04:58:35.255Z,100.00
2022-12-22T05:01:28.404Z,100.00
2022-12-22T05:03:55.017Z,100.00
2022-12-22T05:06:21.562Z,100.00
2022-12-22T05:08:48.051Z,100.00
2022-12-22T05:11:14.744Z,100.00
2022-12-22T05:13:41.433Z,100.00
2022-12-22T05:16:16.790Z,100.00
2022-12-22T05:18:45.263Z,100.00
2022-12-22T05:21:15.026Z,100.00
2022-12-22T05:23:42.172Z,100.00
2022-12-22T05:26:09.678Z,100.00
2022-12-22T05:28:36.350Z,100.00
2022-12-22T05:31:08.276Z,100.00
2022-12-22T05:33:35.588Z,100.00
2022-12-22T05:36:05.648Z,100.00
2022-12-22T05:38:32.349Z,100.00
2022-12-22T05:41:04.052Z,100.00
2022-12-22T05:43:33.400Z,100.00
2022-12-22T05:46:09.239Z,100.00
2022-12-22T05:48:39.460Z,100.00
2022-12-22T05:51:08.771Z,100.00
2022-12-22T05:53:35.414Z,100.00
2022-12-22T05:56:02.171Z,100.00
2022-12-22T05:58:31.647Z,100.00
2022-12-22T06:00:59.871Z,100.00
2022-12-22T06:03:27.923Z,100.00
2022-12-22T06:05:55.139Z,100.00
2022-12-22T06:08:22.307Z,100.00
2022-12-22T06:10:48.947Z,100.00
2022-12-22T06:13:15.591Z,100.00
2022-12-22T06:15:42.525Z,100.00
2022-12-22T06:18:09.313Z,100.00
2022-12-22T06:20:38.768Z,100.00
2022-12-22T06:23:05.343Z,100.00
2022-12-22T06:25:31.990Z,100.00
2022-12-22T06:27:58.552Z,100.00
2022-12-22T06:30:32.701Z,100.00
2022-12-22T06:33:00.688Z,100.00
2022-12-22T06:35:27.303Z,100.00
2022-12-22T06:37:53.838Z,100.00
2022-12-22T06:40:20.375Z,100.00
2022-12-22T06:43:08.798Z,100.00
2022-12-22T06:45:41.525Z,100.00
2022-12-22T06:48:09.407Z,100.00
2022-12-22T06:50:36.140Z,100.00
2022-12-22T06:53:03.671Z,100.00
2022-12-22T06:55:30.372Z,100.00
2022-12-22T06:57:56.835Z,100.00
2022-12-22T07:00:23.595Z,100.00
2022-12-22T07:02:50.327Z,100.00
2022-12-22T07:05:17.059Z,100.00
2022-12-22T07:07:43.813Z,100.00
2022-12-22T07:10:11.060Z,100.00
2022-12-22T07:12:37.645Z,100.00
2022-12-22T07:15:06.962Z,100.00
2022-12-22T07:17:33.562Z,100.00
2022-12-22T07:20:00.225Z,100.00
2022-12-22T07:22:30.419Z,100.00
2022-12-22T07:24:57.368Z,100.00
2022-12-22T07:27:23.888Z,100.00
2022-12-22T07:29:50.382Z,100.00
2022-12-22T07:32:16.829Z,100.00
2022-12-22T07:34:43.458Z,100.00
2022-12-22T07:37:10.030Z,100.00
2022-12-22T07:39:36.517Z,100.00
2022-12-22T07:42:21.713Z,100.00
2022-12-22T07:44:48.333Z,100.00
2022-12-22T07:47:14.912Z,100.00
2022-12-22T07:50:00.105Z,100.00
2022-12-22T07:52:27.070Z,100.00
2022-12-22T07:54:53.691Z,100.00
2022-12-22T07:57:20.332Z,100.00
2022-12-22T07:59:49.358Z,100.00
2022-12-22T08:02:16.188Z,100.00
2022-12-22T08:04:42.849Z,100.00
2022-12-22T08:07:09.557Z,100.00
2022-12-22T08:09:36.334Z,100.00
2022-12-22T08:12:02.916Z,100.00
2022-12-22T08:14:29.575Z,100.00
2022-12-22T08:16:56.121Z,100.00
2022-12-22T08:19:22.817Z,100.00
2022-12-22T08:21:52.891Z,100.00
2022-12-22T08:24:20.395Z,100.00
2022-12-22T08:26:51.245Z,100.00
2022-12-22T08:29:23.618Z,100.00
2022-12-22T08:31:50.526Z,100.00
2022-12-22T08:34:17.416Z,100.00
2022-12-22T08:36:50.889Z,100.00
2022-12-22T08:39:21.497Z,100.00
2022-12-22T08:41:51.641Z,100.00
2022-12-22T08:44:27.063Z,100.00
2022-12-22T08:46:56.053Z,100.00
2022-12-22T08:49:24.378Z,100.00
2022-12-22T08:51:52.120Z,100.00
2022-12-22T08:54:19.378Z,100.00
2022-12-22T08:56:45.942Z,100.00
2022-12-22T08:59:13.117Z,100.00
2022-12-22T09:01:44.168Z,100.00
2022-12-22T09:04:15.846Z,100.00
2022-12-22T09:06:42.468Z,100.00
2022-12-22T09:09:11.860Z,100.00
2022-12-22T09:11:41.975Z,100.00
2022-12-22T09:14:12.850Z,100.00
2022-12-22T09:16:39.834Z,100.00
2022-12-22T09:19:07.385Z,100.00
2022-12-22T09:21:34.987Z,100.00
2022-12-22T09:24:01.667Z,100.00
2022-12-22T09:26:29.025Z,100.00
2022-12-22T09:28:56.541Z,100.00
2022-12-22T09:31:25.133Z,100.00
2022-12-22T09:33:57.008Z,100.00
2022-12-22T09:36:29.499Z,100.00
2022-12-22T09:38:56.613Z,100.00
2022-12-22T09:41:32.869Z,100.00
2022-12-22T09:44:27.197Z,100.00
2022-12-22T09:46:58.476Z,99.65
2022-12-22T09:49:35.344Z,98.68
2022-12-22T09:52:10.486Z,96.88
2022-12-22T09:54:37.317Z,96.75
2022-12-22T09:57:11.607Z,96.47
2022-12-22T09:59:38.382Z,96.04
2022-12-22T10:02:46.928Z,97.44
2022-12-22T10:05:30.847Z,95.51
2022-12-22T10:08:11.097Z,96.09
2022-12-22T10:10:38.355Z,96.04
2022-12-22T10:13:06.337Z,95.86
2022-12-22T10:15:41.621Z,95.82
2022-12-22T10:18:22.908Z,96.46
2022-12-22T10:21:14.560Z,96.12
2022-12-22T10:23:45.962Z,97.09
2022-12-22T10:26:28.779Z,95.70
2022-12-22T10:29:10.794Z,93.78
2022-12-22T10:32:04.652Z,93.42
2022-12-22T10:34:31.817Z,92.91
2022-12-22T10:37:05.018Z,93.56
2022-12-22T10:39:40.560Z,92.79
2022-12-22T10:42:11.232Z,92.07
2022-12-22T10:44:38.414Z,93.21
2022-12-22T10:47:17.616Z,93.37
2022-12-22T10:49:49.155Z,93.47
2022-12-22T10:52:30.431Z,93.88
2022-12-22T10:55:21.358Z,94.39
2022-12-22T10:57:49.713Z,93.10
2022-12-22T11:00:24.382Z,91.89
2022-12-22T11:02:53.557Z,92.13
2022-12-22T11:05:20.674Z,90.99
2022-12-22T11:07:48.137Z,88.96
2022-12-22T11:10:14.860Z,88.54
2022-12-22T11:13:17.061Z,87.72
2022-12-22T11:16:19.497Z,88.11
2022-12-22T11:18:59.425Z,85.81
2022-12-22T11:21:49.181Z,85.83
2022-12-22T11:24:52.134Z,86.01
2022-12-22T11:27:34.249Z,85.77
2022-12-22T11:30:28.520Z,85.43
2022-12-22T11:33:06.509Z,86.26
2022-12-22T11:35:49.372Z,87.26
2022-12-22T11:38:22.023Z,87.60
2022-12-22T11:40:58.512Z,87.83
2022-12-22T11:44:04.539Z,89.43
2022-12-22T11:46:51.381Z,88.56
2022-12-22T11:49:55.161Z,89.58
2022-12-22T11:52:48.036Z,89.84
2022-12-22T11:55:29.372Z,90.96
2022-12-22T11:58:24.003Z,90.43
2022-12-22T12:01:29.473Z,91.69
2022-12-22T12:03:56.134Z,92.40
2022-12-22T12:06:55.470Z,91.82
2022-12-22T12:09:27.937Z,92.95
2022-12-22T12:12:11.041Z,93.37
2022-12-22T12:14:53.429Z,95.00
2022-12-22T12:17:35.317Z,95.04
2022-12-22T12:20:26.359Z,96.49
2022-12-22T12:23:21.166Z,96.37
2022-12-22T12:26:22.171Z,97.46
2022-12-22T12:29:00.884Z,98.58
2022-12-22T12:31:48.980Z,99.56
2022-12-22T12:34:18.946Z,99.13
2022-12-22T12:36:58.581Z,99.34
2022-12-22T12:39:36.150Z,100.00
2022-12-22T12:42:30.603Z,100.00
2022-12-22T12:45:02.403Z,100.00
2022-12-22T12:47:31.704Z,100.00
2022-12-22T12:50:06.835Z,100.00
2022-12-22T12:53:06.789Z,100.00
2022-12-22T12:55:39.676Z,100.00
2022-12-22T12:58:11.784Z,100.00
2022-12-22T13:00:45.042Z,100.00
2022-12-22T13:04:02.342Z,100.00
2022-12-22T13:06:49.162Z,100.00
2022-12-22T13:12:39.127Z,100.00
2022-12-22T13:15:35.936Z,100.00
2022-12-22T13:18:08.206Z,100.00
2022-12-22T13:20:41.034Z,100.00
2022-12-22T13:23:16.081Z,100.00
2022-12-22T13:25:48.975Z,100.00
2022-12-22T13:28:19.183Z,100.00
2022-12-22T13:30:48.630Z,100.00
2022-12-22T13:33:19.662Z,100.00
2022-12-22T13:35:58.514Z,99.82
2022-12-22T13:38:34.176Z,99.46
2022-12-22T13:41:14.060Z,99.20
2022-12-22T13:43:43.790Z,98.93
2022-12-22T13:46:11.328Z,99.33
2022-12-22T13:48:44.464Z,99.20
2022-12-22T13:51:32.368Z,98.80
2022-12-22T13:54:19.735Z,99.12
2022-12-22T13:56:58.349Z,98.73
2022-12-22T13:59:35.539Z,98.88
2022-12-22T14:02:08.478Z,98.32
2022-12-22T14:04:43.317Z,97.75
2022-12-22T14:07:43.595Z,98.09
2022-12-22T14:10:46.934Z,98.18
2022-12-22T14:13:38.221Z,97.76
2022-12-22T14:16:13.043Z,97.17
2022-12-22T14:18:42.852Z,97.90
2022-12-22T14:21:10.928Z,97.62
2022-12-22T14:24:16.309Z,97.79
2022-12-22T14:26:52.830Z,99.21
2022-12-22T14:30:22.924Z,99.15
2022-12-22T14:33:54.325Z,99.55
2022-12-22T14:36:26.558Z,100.00
2022-12-22T14:45:30.035Z,100.00
2022-12-22T14:48:28.846Z,100.00
2022-12-22T14:51:00.484Z,100.00
2022-12-22T14:53:51.075Z,99.72
2022-12-22T15:01:19.401Z,99.96
2022-12-22T15:08:39.337Z,100.00
2022-12-22T15:11:58.482Z,100.00
2022-12-22T15:15:45.159Z,100.00
2022-12-22T15:19:25.762Z,100.00
2022-12-22T15:22:32.060Z,100.00
2022-12-22T15:25:12.849Z,100.00
2022-12-22T15:27:40.525Z,100.00
2022-12-22T15:30:24.349Z,100.00
2022-12-22T15:32:59.100Z,100.00
2022-12-22T15:39:26.401Z,100.00
2022-12-22T15:42:11.060Z,100.00
2022-12-22T15:45:35.189Z,100.00
2022-12-22T15:48:01.269Z,100.00
2022-12-22T15:50:41.986Z,100.00
2022-12-22T15:53:20.600Z,100.00
2022-12-22T15:55:55.133Z,100.00
2022-12-22T15:58:35.140Z,100.00
2022-12-22T16:01:05.409Z,100.00
2022-12-22T16:03:32.695Z,100.00
2022-12-22T16:06:04.859Z,100.00
2022-12-22T16:08:37.039Z,100.00
2022-12-22T16:11:08.117Z,100.00
2022-12-22T16:13:37.872Z,100.00
2022-12-22T16:16:09.892Z,100.00
2022-12-22T16:18:38.747Z,100.00
2022-12-22T16:21:23.198Z,100.00
2022-12-22T16:23:51.279Z,100.00
2022-12-22T16:26:22.807Z,100.00
2022-12-22T16:28:49.732Z,100.00
2022-12-22T16:31:21.070Z,100.00
2022-12-22T16:33:51.723Z,100.00
2022-12-22T16:36:18.873Z,100.00
2022-12-22T16:38:51.568Z,100.00
2022-12-22T16:41:27.729Z,100.00
2022-12-22T16:47:27.992Z,100.00
2022-12-22T16:54:34.955Z,100.00
2022-12-22T17:00:17.272Z,100.00
2022-12-22T17:02:59.021Z,100.00
2022-12-22T17:05:50.994Z,100.00
2022-12-22T17:08:37.744Z,100.00
2022-12-22T17:11:20.622Z,100.00
2022-12-22T17:13:55.444Z,100.00
2022-12-22T17:16:33.239Z,100.00
2022-12-22T17:19:06.568Z,100.00
2022-12-22T17:21:50.807Z,100.00
2022-12-22T17:24:29.263Z,100.00
2022-12-22T17:27:22.900Z,100.00
2022-12-22T17:30:50.107Z,100.00
2022-12-22T17:34:19.866Z,100.00
2022-12-22T17:37:20.906Z,100.00
2022-12-22T17:40:06.052Z,100.00
2022-12-22T17:42:45.166Z,100.00
2022-12-22T17:48:47.130Z,100.00
2022-12-22T17:51:38.995Z,100.00
2022-12-22T17:57:04.881Z,100.00
2022-12-22T17:59:43.737Z,100.00
2022-12-22T18:02:32.509Z,100.00
2022-12-22T18:05:02.593Z,100.00
2022-12-22T18:07:43.490Z,100.00
2022-12-22T18:10:41.742Z,100.00
2022-12-22T18:13:29.532Z,100.00
2022-12-22T18:16:03.715Z,100.00
2022-12-22T18:18:52.475Z,100.00
2022-12-22T18:21:36.149Z,100.00
2022-12-22T18:24:39.151Z,100.00
2022-12-22T18:27:28.927Z,100.00
2022-12-22T18:30:28.661Z,100.00
2022-12-22T18:33:09.528Z,100.00
2022-12-22T18:35:40.496Z,100.00
2022-12-22T18:38:39.030Z,100.00
2022-12-22T18:41:26.455Z,100.00
2022-12-22T18:44:15.217Z,100.00
2022-12-22T18:46:50.066Z,100.00
2022-12-22T18:49:28.531Z,100.00
2022-12-22T18:52:14.657Z,100.00
2022-12-22T18:54:44.556Z,100.00
2022-12-22T18:57:22.933Z,100.00
2022-12-22T18:59:50.217Z,100.00
2022-12-22T19:02:31.012Z,100.00
2022-12-22T19:05:10.132Z,100.00
2022-12-22T19:08:03.793Z,100.00
2022-12-22T19:11:11.806Z,100.00
2022-12-22T19:14:09.430Z,100.00
2022-12-22T19:16:48.756Z,100.00
2022-12-22T19:19:43.015Z,100.00
2022-12-22T19:22:55.092Z,100.00
2022-12-22T19:25:46.266Z,100.00
2022-12-22T19:29:09.038Z,100.00
2022-12-22T19:31:44.271Z,100.00
2022-12-22T19:34:38.416Z,100.00
2022-12-22T19:37:19.647Z,100.00
2022-12-22T19:39:54.996Z,100.00
2022-12-22T19:43:02.171Z,100.00
2022-12-22T19:46:10.144Z,100.00
2022-12-22T19:48:50.158Z,100.00
2022-12-22T19:51:46.778Z,100.00
2022-12-22T19:54:59.213Z,100.00
2022-12-22T19:57:54.364Z,100.00
2022-12-22T20:01:17.333Z,100.00
2022-12-22T20:06:17.062Z,100.00
2022-12-22T20:14:57.760Z,100.00
2022-12-22T20:17:36.900Z,100.00
2022-12-22T20:21:05.984Z,100.00
2022-12-22T20:23:59.960Z,100.00
2022-12-22T20:26:36.192Z,100.00
2022-12-22T20:30:09.467Z,100.00
2022-12-22T20:33:59.908Z,100.00
2022-12-22T20:36:35.991Z,100.00
2022-12-22T20:39:20.243Z,100.00
2022-12-22T20:41:52.538Z,100.00
2022-12-22T20:44:23.146Z,100.00
2022-12-22T20:47:18.655Z,100.00
2022-12-22T20:49:58.637Z,100.00
2022-12-22T20:52:26.562Z,100.00
2022-12-22T20:54:57.252Z,100.00
2022-12-22T20:57:29.467Z,100.00
2022-12-22T20:59:59.028Z,100.00
2022-12-22T21:02:29.542Z,100.00
2022-12-22T21:04:56.475Z,100.00
2022-12-22T21:07:22.889Z,100.00
2022-12-22T21:09:49.314Z,100.00
2022-12-22T21:12:15.727Z,100.00
2022-12-22T21:14:42.143Z,100.00
2022-12-22T21:17:18.796Z,100.00
2022-12-22T21:19:45.611Z,100.00
2022-12-22T21:22:12.048Z,100.00
2022-12-22T21:24:38.479Z,100.00
2022-12-22T21:27:05.228Z,100.00
2022-12-22T21:29:31.650Z,100.00
2022-12-22T21:31:58.051Z,100.00
2022-12-22T21:34:24.553Z,100.00
2022-12-22T21:36:58.671Z,100.00
2022-12-22T21:39:37.533Z,100.00
2022-12-22T21:42:04.998Z,100.00
2022-12-22T21:44:34.477Z,100.00
2022-12-22T21:47:01.250Z,100.00
2022-12-22T21:49:30.986Z,100.00
2022-12-22T21:51:57.556Z,100.00
2022-12-22T21:54:25.603Z,100.00
2022-12-22T21:56:53.536Z,100.00
2022-12-22T21:59:20.743Z,100.00
2022-12-22T22:01:47.539Z,100.00
2022-12-22T22:04:14.444Z,100.00
2022-12-22T22:06:40.885Z,100.00
2022-12-22T22:09:07.533Z,100.00
2022-12-22T22:11:54.241Z,100.00
2022-12-22T22:14:21.041Z,100.00
2022-12-22T22:16:47.694Z,100.00
2022-12-22T22:19:14.063Z,100.00
2022-12-22T22:21:40.455Z,100.00
2022-12-22T22:24:07.075Z,100.00
2022-12-22T22:26:33.454Z,100.00
2022-12-22T22:28:59.818Z,100.00
2022-12-22T22:31:26.299Z,100.00
2022-12-22T22:33:52.921Z,100.00
2022-12-22T22:36:19.387Z,100.00
2022-12-22T22:38:49.398Z,100.00
2022-12-22T22:41:15.772Z,100.00
2022-12-22T22:43:42.158Z,100.00
2022-12-22T22:46:08.576Z,100.00
2022-12-22T22:48:35.194Z,100.00
2022-12-22T22:51:01.611Z,100.00
2022-12-22T22:53:27.998Z,100.00
2022-12-22T22:55:54.382Z,100.00
2022-12-22T22:58:20.777Z,100.00
2022-12-22T23:00:47.504Z,100.00
2022-12-22T23:03:14.046Z,100.00
2022-12-22T23:05:40.530Z,100.00
2022-12-22T23:08:06.949Z,100.00
2022-12-22T23:10:39.386Z,100.00
2022-12-22T23:13:07.891Z,100.00
2022-12-22T23:15:34.282Z,100.00
2022-12-22T23:18:00.941Z,100.00
2022-12-22T23:20:28.260Z,100.00
2022-12-22T23:22:54.728Z,100.00
2022-12-22T23:25:21.113Z,100.00
2022-12-22T23:27:47.481Z,100.00
2022-12-22T23:30:14.174Z,100.00
2022-12-22T23:32:40.537Z,100.00
2022-12-22T23:35:07.101Z,100.00
2022-12-22T23:37:33.477Z,100.00
2022-12-22T23:40:25.161Z,100.00
2022-12-22T23:42:47.791Z,100.00
2022-12-22T23:45:16.852Z,100.00
2022-12-22T23:47:43.230Z,100.00
2022-12-22T23:50:09.977Z,100.00
2022-12-22T23:52:36.435Z,100.00
2022-12-22T23:55:02.877Z,100.00
2022-12-22T23:57:29.348Z,100.00
2022-12-22T23:59:55.760Z,100.00
